KRNT - Renton, Washington, USA
Distance from station: W 21mi, 33km
Updated: Sat, 25-Jun-2022 12:53pm PDT

 Wind from NW
Wind: NW 15 mph , 24 km/h
Temperature: 82°F , 28°C
Dew Point: 54°F , 12°C
Humidity: 37%
Barometer: 30.10 inHg , 1019.3 hPa
Visibility: 10 miles , 16 km
2022/06/25 19:53 KRNT 251953Z 32013KT 10SM CLR 28/12 A3010 RMK AO2 SLP198 T02830117
KBFI - Seattle/Boeing, Washington, USA
Distance from station: W 25mi, 41km
Updated: Sat, 25-Jun-2022 12:53pm PDT

 Wind from WNW
Wind: WNW 9 mph , 15 km/h
Temperature: 79°F , 26°C
Dew Point: 54°F , 12°C
Humidity: 42%
Barometer: 30.12 inHg , 1020 hPa
Visibility: 10 miles , 16 km
2022/06/25 19:53 KBFI 251953Z 30008KT 10SM CLR 26/12 A3012 RMK AO2 SLP198 T02610122
 
KSEA - Seattle/Metro, Washington, USA
Distance from station: W 25mi, 41km
Updated: Sat, 25-Jun-2022 12:53pm PDT

 Wind from N
Wind: N 13 mph , 20 km/h, Gust: 23 mph , 37 km/h
Temperature: 84°F , 29°C
Dew Point: 54°F , 12°C
Humidity: 35%
Barometer: 30.13 inHg , 1020.3 hPa
Visibility: 10 miles , 16 km
Cloud details: 25000 ft
2022/06/25 19:53 KSEA 251953Z 35011G20KT 10SM SCT250 29/12 A3013 RMK AO2 SLP206 T02890117
KSMP - Stampede Pass, Washington, USA
Distance from station: SE 26mi, 41km
Updated: Sat, 25-Jun-2022 12:56pm PDT

 Wind from varies
Wind: varies 3 mph , 6 km/h
Temperature: 72°F , 22°C
Dew Point: 37°F , 3°C
Humidity: 29%
Barometer: 30.31 inHg , 1026.4 hPa
Visibility: 10 miles , 16 km
2022/06/25 19:56 KSMP 251956Z AUTO VRB03KT 10SM CLR 22/03 A3031 RMK AO2 SLP240 T02170028
 
KPLU - Puyallup/Thun, Washington, USA
Distance from station: SW 36mi, 59km
Updated: Sat, 25-Jun-2022 1:35pm PDT

 Wind from N
Wind: N 0 mph , 0 km/h, Gust: 12 mph , 19 km/h
Temperature: 82°F , 28°C
Heat Index: 81°F , 27°C
Dew Point: 55°F , 13°C
Humidity: 40%
Barometer: 30.12 inHg , 1020 hPa
Visibility: 10 miles , 16 km
2022/06/25 20:35 KPLU 252035Z AUTO 00000G10KT 10SM CLR 28/13 A3012 RMK AO2
KPAE - Everett, Washington, USA
Distance from station: NW 37mi, 60km
Updated: Sat, 25-Jun-2022 12:53pm PDT

 Wind from N
Wind: N 9 mph , 15 km/h
Temperature: 75°F , 24°C
Dew Point: 54°F , 12°C
Humidity: 47%
Barometer: 30.18 inHg , 1022 hPa
Visibility: 10 miles , 16 km
2022/06/25 19:53 KPAE 251953Z 35008KT 10SM CLR 24/12 A3018 RMK AO2 SLP218 T02390117 $
 
KTIW - Tacoma, Washington, USA
Distance from station: WSW 41mi, 66km
Updated: Sat, 25-Jun-2022 12:53pm PDT

 Wind from N
Wind: N 15 mph , 24 km/h, Gust: 25 mph , 41 km/h
Temperature: 81°F , 27°C
Dew Point: 48°F , 9°C
Humidity: 32%
Barometer: 30.12 inHg , 1020 hPa
Visibility: 10 miles , 16 km
2022/06/25 19:53 KTIW 251953Z 01013G22KT 10SM CLR 27/09 A3012 RMK AO2 SLP197 T02720089
KTCM - Tacoma/Mc Chord, Washington, USA
Distance from station: SW 42mi, 67km
Updated: Sat, 25-Jun-2022 12:58pm PDT

 Wind from N
Wind: N 9 mph , 15 km/h
Temperature: 82°F , 28°C
Dew Point: 52°F , 11°C
Humidity: 35%
Barometer: 30.12 inHg , 1020 hPa
Visibility: 10 miles , 16 km
2022/06/25 19:58 KTCM 251958Z AUTO 36008KT 10SM CLR 28/11 A3012 RMK AO2 SLP202 T02780113 $
 
KPWT - Bremerton Ntnl, Washington, USA
Distance from station: W 45mi, 73km
Updated: Sat, 25-Jun-2022 12:56pm PDT

 Wind from NNE
Wind: NNE 13 mph , 20 km/h, Gust: 20 mph , 31 km/h
Temperature: 82°F , 28°C
Dew Point: 50°F , 10°C
Humidity: 32%
Barometer: 30.15 inHg , 1021 hPa
Visibility: 10 miles , 16 km
2022/06/25 19:56 KPWT 251956Z AUTO 03011G17KT 10SM CLR 28/10 A3015 RMK AO2 SLP210 T02830100
KGRF - Fort Lewis/Gray, Washington, USA
Distance from station: SW 48mi, 77km
Updated: Sat, 25-Jun-2022 12:58pm PDT

 Wind from NNW
Wind: NNW 9 mph , 15 km/h
Temperature: 82°F , 28°C
Dew Point: 50°F , 10°C
Humidity: 32%
Barometer: 30.10 inHg , 1019.3 hPa
Visibility: 10 miles , 16 km
Cloud details: 21000 ft
2022/06/25 19:58 KGRF 251958Z AUTO 33008KT 10SM FEW210 28/10 A3010 RMK AO2 SLP195 T02800102 $
 
KAWO - Arlington Muni, Washington, USA
Distance from station: NNW 50mi, 80km
Updated: Sat, 25-Jun-2022 1:10pm PDT

 Wind from WNW
Wind: WNW 9 mph , 15 km/h
Temperature: 81°F , 27°C
Heat Index: 82°F , 28°C
Dew Point: 61°F , 16°C
Humidity: 51%
Barometer: 30.15 inHg , 1021 hPa
Visibility: 10 miles , 16 km
Cloud details: 100 ft
2022/06/25 20:10 KAWO 252010Z AUTO 30008KT 10SM FEW001 27/16 A3015 RMK AO2